Time;durP1;ratioP1;P1;durP2;ratioP2;P2;SDS_P1;SDS_P2;PMS_P1;PMS_P2;Temp;Humidity;BMP_temperature;BMP_pressure;BME280_temperature;BME280_humidity;BME280_pressure;Samples;Min_cycle;Max_cycle;Signal;HPM_P1;HPM_P2
2022/10/22 00:01:59;;;;;;;15.90;14.20;;;;;;;;;;4921877;29;20465;-71
2022/10/22 00:04:52;;;;;;;14.93;13.23;;;;;;;;;;4919437;29;20453;-71
2022/10/22 00:07:44;;;;;;;14.87;12.63;;;;;;;;;;4921228;29;20881;-70
2022/10/22 00:10:34;;;;;;;13.00;11.80;;;;;;;;;;4916576;29;20464;-74
2022/10/22 00:13:26;;;;;;;16.80;15.07;;;;;;;;;;4901766;29;21027;-73
2022/10/22 00:16:16;;;;;;;16.70;14.00;;;;;;;;;;4919282;29;21116;-75
2022/10/22 00:19:08;;;;;;;14.40;13.00;;;;;;;;;;4915499;29;20472;-73
2022/10/22 00:21:58;;;;;;;15.60;13.70;;;;;;;;;;4918662;29;20470;-72
2022/10/22 00:24:55;;;;;;;15.10;12.80;;;;;;;;;;4920053;29;20460;-70
2022/10/22 00:27:46;;;;;;;19.73;15.00;;;;;;;;;;4917879;29;20468;-71
2022/10/22 00:30:36;;;;;;;16.50;14.00;;;;;;;;;;4915517;29;20449;-72
2022/10/22 00:33:25;;;;;;;15.53;13.93;;;;;;;;;;4917444;29;20484;-71
2022/10/22 00:36:18;;;;;;;15.33;13.10;;;;;;;;;;4916069;29;20461;-73
2022/10/22 00:39:15;;;;;;;14.93;13.40;;;;;;;;;;4919638;29;20544;-72
2022/10/22 00:42:10;;;;;;;15.20;13.60;;;;;;;;;;4925216;29;20461;-71
2022/10/22 00:45:08;;;;;;;15.17;12.87;;;;;;;;;;4923054;29;20486;-73
2022/10/22 00:48:04;;;;;;;14.03;12.50;;;;;;;;;;4929289;29;20471;-70
2022/10/22 00:50:57;;;;;;;14.17;12.70;;;;;;;;;;4922406;29;20881;-70
2022/10/22 00:53:52;;;;;;;15.10;13.23;;;;;;;;;;4918765;29;20611;-73
2022/10/22 00:56:45;;;;;;;15.90;13.00;;;;;;;;;;4929293;29;20464;-72
2022/10/22 00:59:42;;;;;;;15.30;13.70;;;;;;;;;;4929789;29;20495;-72
2022/10/22 01:02:34;;;;;;;14.77;13.17;;;;;;;;;;4924211;29;20480;-73
2022/10/22 01:05:22;;;;;;;16.70;13.33;;;;;;;;;;4927606;29;20460;-71
2022/10/22 01:08:20;;;;;;;15.50;13.17;;;;;;;;;;4928157;29;20912;-71
2022/10/22 01:11:20;;;;;;;16.60;13.40;;;;;;;;;;4922104;29;20456;-72
2022/10/22 01:14:14;;;;;;;19.30;13.60;;;;;;;;;;4918850;29;20483;-71
2022/10/22 01:17:17;;;;;;;15.03;13.40;;;;;;;;;;4917700;29;20844;-71
2022/10/22 01:20:18;;;;;;;15.73;13.90;;;;;;;;;;4919027;29;20539;-71
2022/10/22 01:23:14;;;;;;;14.67;13.27;;;;;;;;;;4921313;29;20469;-71
2022/10/22 01:26:05;;;;;;;15.07;13.47;;;;;;;;;;4923178;29;20852;-73
2022/10/22 01:29:03;;;;;;;15.97;14.27;;;;;;;;;;4918548;29;20453;-72
2022/10/22 01:31:57;;;;;;;15.77;13.30;;;;;;;;;;4922635;29;20460;-70
2022/10/22 01:34:52;;;;;;;15.27;12.33;;;;;;;;;;4919620;29;20465;-70
2022/10/22 01:37:46;;;;;;;16.03;14.30;;;;;;;;;;4923266;29;20457;-71
2022/10/22 01:40:37;;;;;;;17.80;14.57;;;;;;;;;;4921886;29;20473;-70
2022/10/22 01:43:28;;;;;;;15.53;13.70;;;;;;;;;;4922481;29;20480;-73
2022/10/22 01:46:23;;;;;;;16.00;14.33;;;;;;;;;;4925454;28;20457;-74
2022/10/22 01:49:21;;;;;;;18.27;13.20;;;;;;;;;;4928373;29;21030;-70
2022/10/22 01:52:27;;;;;;;14.37;12.83;;;;;;;;;;4919600;29;21920;-70
2022/10/22 01:55:22;;;;;;;12.53;11.33;;;;;;;;;;4919201;29;20805;-71
2022/10/22 01:58:20;;;;;;;14.43;12.87;;;;;;;;;;4925311;29;20962;-72
2022/10/22 02:01:10;;;;;;;14.93;13.43;;;;;;;;;;4924382;29;20596;-71
2022/10/22 02:04:10;;;;;;;14.23;12.60;;;;;;;;;;4919863;29;20588;-70
2022/10/22 02:07:02;;;;;;;16.57;14.80;;;;;;;;;;4919173;29;21454;-71
2022/10/22 02:09:52;;;;;;;16.23;13.50;;;;;;;;;;4929255;29;20461;-70
2022/10/22 02:12:48;;;;;;;15.73;13.70;;;;;;;;;;4920354;29;20491;-71
2022/10/22 02:15:43;;;;;;;15.17;13.47;;;;;;;;;;4919436;29;20480;-70
2022/10/22 02:18:43;;;;;;;13.90;12.53;;;;;;;;;;4920515;29;20545;-70
2022/10/22 02:21:40;;;;;;;16.93;12.20;;;;;;;;;;4920791;29;21100;-70
2022/10/22 02:24:30;;;;;;;13.97;12.20;;;;;;;;;;4917870;29;20449;-72
2022/10/22 02:27:21;;;;;;;15.50;12.93;;;;;;;;;;4919425;29;20857;-71
2022/10/22 02:30:18;;;;;;;14.50;13.00;;;;;;;;;;4921670;29;20493;-71
2022/10/22 02:33:09;;;;;;;12.53;11.20;;;;;;;;;;4919668;29;20482;-72
2022/10/22 02:35:59;;;;;;;14.80;12.10;;;;;;;;;;4919890;29;20602;-73
2022/10/22 02:38:53;;;;;;;15.40;12.93;;;;;;;;;;4920112;29;21161;-73
2022/10/22 02:41:45;;;;;;;15.23;13.07;;;;;;;;;;4922858;29;20483;-71
2022/10/22 02:44:43;;;;;;;17.37;12.73;;;;;;;;;;4925274;29;20453;-70
2022/10/22 02:47:37;;;;;;;15.43;13.03;;;;;;;;;;4927160;29;20854;-71
2022/10/22 02:50:28;;;;;;;12.67;11.33;;;;;;;;;;4918147;29;21186;-73
2022/10/22 02:53:21;;;;;;;15.27;11.53;;;;;;;;;;4929501;29;20480;-73
2022/10/22 02:56:13;;;;;;;14.00;11.83;;;;;;;;;;4925840;29;20449;-71
2022/10/22 02:59:05;;;;;;;12.93;11.60;;;;;;;;;;4920450;29;20465;-70
2022/10/22 03:01:56;;;;;;;18.57;13.63;;;;;;;;;;4926073;29;20499;-73
2022/10/22 03:04:47;;;;;;;14.43;13.03;;;;;;;;;;4921290;29;20483;-73
2022/10/22 03:07:42;;;;;;;14.87;13.30;;;;;;;;;;4917978;29;20460;-74
2022/10/22 03:10:33;;;;;;;13.93;12.50;;;;;;;;;;4925363;29;20459;-70
2022/10/22 03:13:29;;;;;;;14.60;11.50;;;;;;;;;;4922287;29;20852;-70
2022/10/22 03:16:21;;;;;;;14.37;12.87;;;;;;;;;;4919914;29;20488;-71
2022/10/22 03:19:11;;;;;;;14.77;13.10;;;;;;;;;;4920926;29;20475;-70
2022/10/22 03:22:06;;;;;;;12.90;10.53;;;;;;;;;;4926255;29;20531;-70
2022/10/22 03:25:00;;;;;;;17.53;13.20;;;;;;;;;;4929027;29;20484;-71
2022/10/22 03:27:58;;;;;;;14.40;12.90;;;;;;;;;;4920118;29;20482;-71
2022/10/22 03:30:49;;;;;;;15.83;13.03;;;;;;;;;;4918229;28;20452;-71
2022/10/22 03:33:43;;;;;;;13.30;11.90;;;;;;;;;;4919363;29;20980;-70
2022/10/22 03:36:37;;;;;;;13.27;11.70;;;;;;;;;;4918356;29;20551;-71
2022/10/22 03:39:36;;;;;;;13.90;12.40;;;;;;;;;;4920590;29;20461;-70
2022/10/22 03:42:25;;;;;;;13.30;11.90;;;;;;;;;;4916985;29;20484;-71
2022/10/22 03:45:22;;;;;;;15.70;13.00;;;;;;;;;;4924183;29;20977;-70
2022/10/22 03:48:16;;;;;;;13.10;11.70;;;;;;;;;;4930105;29;20511;-70
2022/10/22 03:51:09;;;;;;;14.20;11.93;;;;;;;;;;4923069;29;20445;-71
2022/10/22 03:53:59;;;;;;;12.70;11.40;;;;;;;;;;4932864;29;20475;-72
2022/10/22 03:56:55;;;;;;;13.10;11.80;;;;;;;;;;4927102;29;20476;-71
2022/10/22 03:59:49;;;;;;;15.13;11.40;;;;;;;;;;4925361;29;20941;-71
2022/10/22 04:02:40;;;;;;;13.33;11.90;;;;;;;;;;4927409;28;20494;-70
2022/10/22 04:05:31;;;;;;;13.37;11.63;;;;;;;;;;4919115;29;20453;-76
2022/10/22 04:08:22;;;;;;;12.90;11.17;;;;;;;;;;4922378;29;20548;-70
2022/10/22 04:11:12;;;;;;;14.83;11.83;;;;;;;;;;4922599;29;20460;-71
2022/10/22 04:14:05;;;;;;;14.77;11.20;;;;;;;;;;4918392;29;20522;-73
2022/10/22 04:17:03;;;;;;;12.00;10.73;;;;;;;;;;4947806;23;20538;-74
2022/10/22 04:19:52;;;;;;;12.80;10.90;;;;;;;;;;4942217;28;20587;-74
2022/10/22 04:22:51;;;;;;;12.50;11.20;;;;;;;;;;4942060;28;20487;-74
2022/10/22 04:25:44;;;;;;;14.03;11.30;;;;;;;;;;4946738;28;20453;-73
2022/10/22 04:28:38;;;;;;;13.73;11.40;;;;;;;;;;4942669;28;20459;-74
2022/10/22 04:31:31;;;;;;;13.63;11.93;;;;;;;;;;4947193;28;20810;-74
2022/10/22 04:34:19;;;;;;;12.73;10.87;;;;;;;;;;4948745;28;20461;-73
2022/10/22 04:37:11;;;;;;;13.73;10.40;;;;;;;;;;4938448;28;20472;-73
2022/10/22 04:40:01;;;;;;;15.93;12.50;;;;;;;;;;4932416;28;20471;-74
2022/10/22 04:42:56;;;;;;;13.60;10.67;;;;;;;;;;4936984;28;20714;-74
2022/10/22 04:45:47;;;;;;;13.00;10.83;;;;;;;;;;4929039;28;20452;-75
2022/10/22 04:48:49;;;;;;;13.67;11.00;;;;;;;;;;4938861;28;20482;-74
2022/10/22 04:51:38;;;;;;;14.80;11.10;;;;;;;;;;4927969;28;21482;-74
2022/10/22 04:54:38;;;;;;;12.00;10.80;;;;;;;;;;4928622;28;20464;-74
2022/10/22 04:57:40;;;;;;;13.60;10.03;;;;;;;;;;4929697;28;20481;-74
2022/10/22 05:00:37;;;;;;;11.93;10.73;;;;;;;;;;4933097;28;20461;-74
2022/10/22 05:03:25;;;;;;;12.83;11.23;;;;;;;;;;4933516;28;20467;-74
2022/10/22 05:06:19;;;;;;;12.70;11.40;;;;;;;;;;4930546;28;21022;-74
2022/10/22 05:09:11;;;;;;;12.70;10.97;;;;;;;;;;4923797;28;21462;-74
2022/10/22 05:12:13;;;;;;;11.57;10.30;;;;;;;;;;4933889;28;20445;-74
2022/10/22 05:15:08;;;;;;;12.50;10.50;;;;;;;;;;4930696;28;21050;-75
2022/10/22 05:18:03;;;;;;;12.50;10.97;;;;;;;;;;4929384;28;20464;-74
2022/10/22 05:21:02;;;;;;;15.10;11.87;;;;;;;;;;4925591;28;21034;-73
2022/10/22 05:23:54;;;;;;;13.93;11.27;;;;;;;;;;4925669;28;20460;-74
2022/10/22 05:26:45;;;;;;;13.83;10.90;;;;;;;;;;4933417;28;20506;-77
2022/10/22 05:29:43;;;;;;;14.03;11.80;;;;;;;;;;4930068;28;20448;-75
2022/10/22 05:32:39;;;;;;;12.10;10.50;;;;;;;;;;4929073;28;20460;-74
2022/10/22 05:35:27;;;;;;;14.07;12.27;;;;;;;;;;4935681;28;20461;-74
2022/10/22 05:38:18;;;;;;;11.90;10.70;;;;;;;;;;4927451;28;20482;-74
2022/10/22 05:41:12;;;;;;;12.70;11.30;;;;;;;;;;4926449;28;23568;-75
2022/10/22 05:44:06;;;;;;;14.00;12.50;;;;;;;;;;4933491;28;20459;-74
2022/10/22 05:46:57;;;;;;;14.77;12.77;;;;;;;;;;4926442;28;20475;-74
2022/10/22 05:49:49;;;;;;;14.60;13.07;;;;;;;;;;4934088;28;20456;-74
2022/10/22 05:52:38;;;;;;;16.80;13.60;;;;;;;;;;4928416;28;20455;-74
2022/10/22 05:55:30;;;;;;;14.30;12.67;;;;;;;;;;4934948;28;20463;-75
2022/10/22 05:58:23;;;;;;;14.37;12.10;;;;;;;;;;4929666;28;20466;-75
2022/10/22 06:01:21;;;;;;;13.93;12.33;;;;;;;;;;4938020;28;21046;-75
2022/10/22 06:04:11;;;;;;;15.73;13.87;;;;;;;;;;4925980;28;20468;-74
2022/10/22 06:07:01;;;;;;;18.93;14.90;;;;;;;;;;4932938;28;20568;-74
2022/10/22 06:09:50;;;;;;;15.27;13.67;;;;;;;;;;4929561;28;20652;-74
2022/10/22 06:12:38;;;;;;;15.20;13.60;;;;;;;;;;4924812;28;20467;-75
2022/10/22 06:15:29;;;;;;;17.70;13.53;;;;;;;;;;4934176;28;20466;-74
2022/10/22 06:18:17;;;;;;;15.13;13.10;;;;;;;;;;4935628;28;20448;-74
2022/10/22 06:21:06;;;;;;;16.60;13.60;;;;;;;;;;4932799;28;21603;-75
2022/10/22 06:23:57;;;;;;;15.67;13.53;;;;;;;;;;4935227;28;20876;-74
2022/10/22 06:26:46;;;;;;;16.03;14.43;;;;;;;;;;4930308;28;20526;-74
2022/10/22 06:29:34;;;;;;;16.10;14.40;;;;;;;;;;4935768;28;20448;-75
2022/10/22 06:32:23;;;;;;;16.73;14.00;;;;;;;;;;4933520;28;20463;-74
2022/10/22 06:35:11;;;;;;;16.03;14.30;;;;;;;;;;4941763;28;20467;-75
2022/10/22 06:38:00;;;;;;;16.57;14.20;;;;;;;;;;4935103;28;20467;-74
2022/10/22 06:40:50;;;;;;;20.63;17.40;;;;;;;;;;4927845;28;20464;-74
2022/10/22 06:43:38;;;;;;;20.17;16.70;;;;;;;;;;4931885;28;20476;-74
2022/10/22 06:46:27;;;;;;;17.30;14.00;;;;;;;;;;4937182;28;20574;-74
2022/10/22 06:49:16;;;;;;;15.47;13.77;;;;;;;;;;4936527;28;20460;-74
2022/10/22 06:52:04;;;;;;;17.20;14.77;;;;;;;;;;4933850;28;20456;-73
2022/10/22 06:54:53;;;;;;;16.10;13.40;;;;;;;;;;4925251;28;21168;-74
2022/10/22 06:57:42;;;;;;;17.03;14.40;;;;;;;;;;4924061;28;20483;-75
2022/10/22 07:00:32;;;;;;;16.13;13.87;;;;;;;;;;4921735;28;20456;-74
2022/10/22 07:03:26;;;;;;;16.10;13.10;;;;;;;;;;4921906;28;20484;-74
2022/10/22 07:06:15;;;;;;;16.33;14.50;;;;;;;;;;4924453;28;20476;-74
2022/10/22 07:09:03;;;;;;;16.00;14.10;;;;;;;;;;4928663;28;20864;-74
2022/10/22 07:11:52;;;;;;;17.33;14.43;;;;;;;;;;4929395;28;20467;-76
2022/10/22 07:14:42;;;;;;;16.40;14.33;;;;;;;;;;4934662;28;20456;-75
2022/10/22 07:17:33;;;;;;;14.93;13.03;;;;;;;;;;4926133;28;20499;-74
2022/10/22 07:20:22;;;;;;;17.47;14.67;;;;;;;;;;4926085;28;20459;-74
2022/10/22 07:23:10;;;;;;;19.63;15.37;;;;;;;;;;4920389;28;20495;-74
2022/10/22 07:26:01;;;;;;;20.33;15.60;;;;;;;;;;4922547;28;20476;-74
2022/10/22 07:28:49;;;;;;;15.20;13.60;;;;;;;;;;4927898;28;20908;-73
2022/10/22 07:31:39;;;;;;;20.10;15.20;;;;;;;;;;4930249;28;20463;-73
2022/10/22 07:34:29;;;;;;;18.07;15.43;;;;;;;;;;4921770;28;20475;-73
2022/10/22 07:37:20;;;;;;;18.73;15.20;;;;;;;;;;4924684;28;20530;-74
2022/10/22 07:40:09;;;;;;;20.10;16.20;;;;;;;;;;4922341;28;20463;-74
2022/10/22 07:42:58;;;;;;;20.50;16.17;;;;;;;;;;4932085;28;20490;-74
2022/10/22 07:45:46;;;;;;;18.80;15.17;;;;;;;;;;4922201;28;20477;-74
2022/10/22 07:48:36;;;;;;;18.30;15.93;;;;;;;;;;4922535;28;20503;-74
2022/10/22 07:51:25;;;;;;;16.73;13.93;;;;;;;;;;4933392;28;20970;-74
2022/10/22 07:54:13;;;;;;;21.77;16.70;;;;;;;;;;4929996;28;20468;-74
2022/10/22 07:57:02;;;;;;;18.87;16.07;;;;;;;;;;4926773;28;20480;-74
2022/10/22 07:59:52;;;;;;;16.63;14.50;;;;;;;;;;4913422;28;20460;-76
2022/10/22 08:02:41;;;;;;;21.47;16.63;;;;;;;;;;4927443;28;20456;-75
2022/10/22 08:05:31;;;;;;;18.80;15.87;;;;;;;;;;4939963;28;20457;-73
2022/10/22 08:08:20;;;;;;;20.87;16.50;;;;;;;;;;4927041;28;20614;-74
2022/10/22 08:11:11;;;;;;;18.10;14.70;;;;;;;;;;4925034;28;20513;-74
2022/10/22 08:14:00;;;;;;;15.60;13.83;;;;;;;;;;4929057;28;20491;-74
2022/10/22 08:16:48;;;;;;;18.03;14.50;;;;;;;;;;4925995;28;21023;-74
2022/10/22 08:19:37;;;;;;;15.20;13.60;;;;;;;;;;4925957;28;20463;-73
2022/10/22 08:22:27;;;;;;;18.47;14.97;;;;;;;;;;4930421;28;20472;-74
2022/10/22 08:25:16;;;;;;;14.90;13.30;;;;;;;;;;4928079;28;20980;-74
2022/10/22 08:28:05;;;;;;;15.77;14.10;;;;;;;;;;4928341;28;20460;-73
2022/10/22 08:30:54;;;;;;;20.17;16.70;;;;;;;;;;4916502;28;20464;-75
2022/10/22 08:33:42;;;;;;;20.77;17.17;;;;;;;;;;4927776;28;20456;-73
2022/10/22 08:36:31;;;;;;;19.50;17.43;;;;;;;;;;4931776;28;20483;-73
2022/10/22 08:39:21;;;;;;;20.33;17.20;;;;;;;;;;4932610;28;20452;-73
2022/10/22 08:42:20;;;;;;;19.23;16.50;;;;;;;;;;4933805;28;20444;-73
2022/10/22 08:45:13;;;;;;;17.63;15.77;;;;;;;;;;4937883;28;20479;-73
2022/10/22 08:48:11;;;;;;;19.00;16.80;;;;;;;;;;4930789;28;20574;-73
2022/10/22 08:50:59;;;;;;;20.27;15.87;;;;;;;;;;4930362;28;20463;-73
2022/10/22 08:53:53;;;;;;;19.90;17.23;;;;;;;;;;4929534;28;20449;-73
2022/10/22 08:56:46;;;;;;;18.07;15.47;;;;;;;;;;4929316;28;20484;-74
2022/10/22 08:59:37;;;;;;;17.53;14.97;;;;;;;;;;4922757;28;20456;-74
2022/10/22 09:02:34;;;;;;;15.87;14.27;;;;;;;;;;4933617;28;20499;-74
2022/10/22 09:05:28;;;;;;;16.03;13.87;;;;;;;;;;4935472;28;20494;-73
2022/10/22 09:08:18;;;;;;;16.37;13.73;;;;;;;;;;4932871;28;20483;-74
2022/10/22 09:11:14;;;;;;;18.03;13.47;;;;;;;;;;4937810;28;20463;-74
2022/10/22 09:14:05;;;;;;;13.53;12.13;;;;;;;;;;4927813;28;20452;-74
2022/10/22 09:17:05;;;;;;;14.20;11.60;;;;;;;;;;4927380;28;20486;-74
2022/10/22 09:20:01;;;;;;;12.30;10.23;;;;;;;;;;4939883;28;20460;-74
2022/10/22 09:22:54;;;;;;;11.90;10.70;;;;;;;;;;4945481;28;20547;-74
2022/10/22 09:25:48;;;;;;;12.60;9.90;;;;;;;;;;4943031;28;20469;-74
2022/10/22 09:28:36;;;;;;;11.27;10.17;;;;;;;;;;4930365;28;20457;-75
2022/10/22 09:31:31;;;;;;;11.23;9.90;;;;;;;;;;4935598;28;20471;-74
2022/10/22 09:34:21;;;;;;;11.97;10.20;;;;;;;;;;4934791;28;20459;-74
2022/10/22 09:37:10;;;;;;;9.77;8.70;;;;;;;;;;4938592;28;20491;-74
2022/10/22 09:40:04;;;;;;;10.37;9.10;;;;;;;;;;4938633;28;20460;-74
2022/10/22 09:42:52;;;;;;;10.50;9.30;;;;;;;;;;4938863;28;20458;-74
2022/10/22 09:45:41;;;;;;;10.50;8.00;;;;;;;;;;4935114;28;20986;-74
2022/10/22 09:48:33;;;;;;;10.67;8.27;;;;;;;;;;4944512;28;20455;-74
2022/10/22 09:51:24;;;;;;;10.27;7.80;;;;;;;;;;4940924;28;20448;-74
2022/10/22 09:54:17;;;;;;;12.07;7.10;;;;;;;;;;4941062;28;20456;-74
2022/10/22 09:57:12;;;;;;;9.37;8.00;;;;;;;;;;4938925;28;21011;-74
2022/10/22 10:00:01;;;;;;;9.13;7.40;;;;;;;;;;4939030;28;20459;-74
2022/10/22 10:02:49;;;;;;;9.47;7.23;;;;;;;;;;4942973;28;20445;-74
2022/10/22 10:05:42;;;;;;;8.43;6.40;;;;;;;;;;4933574;28;20503;-74
2022/10/22 10:08:31;;;;;;;6.73;6.10;;;;;;;;;;4939716;28;20464;-74
2022/10/22 10:11:24;;;;;;;8.10;6.23;;;;;;;;;;4945940;28;20461;-74
2022/10/22 10:14:19;;;;;;;7.30;6.20;;;;;;;;;;4940131;28;20547;-74
2022/10/22 10:17:11;;;;;;;8.47;6.83;;;;;;;;;;4947124;23;20759;-68
2022/10/22 10:20:03;;;;;;;8.80;5.53;;;;;;;;;;4935810;29;20901;-69
2022/10/22 10:22:58;;;;;;;6.00;5.40;;;;;;;;;;4946692;28;20466;-70
2022/10/22 10:25:49;;;;;;;9.00;5.47;;;;;;;;;;4943152;29;20529;-69
2022/10/22 10:28:48;;;;;;;9.90;5.33;;;;;;;;;;4943806;28;20486;-69
2022/10/22 10:31:42;;;;;;;7.70;5.23;;;;;;;;;;4939503;28;20463;-71
2022/10/22 10:34:37;;;;;;;5.37;4.33;;;;;;;;;;4948144;28;20447;-70
2022/10/22 10:37:28;;;;;;;9.90;5.40;;;;;;;;;;4948180;28;20562;-69
2022/10/22 10:40:24;;;;;;;7.20;4.93;;;;;;;;;;4942491;28;20464;-70
2022/10/22 10:43:15;;;;;;;8.70;4.10;;;;;;;;;;4941864;28;20908;-69
2022/10/22 10:46:10;;;;;;;4.87;4.20;;;;;;;;;;4938102;28;20479;-69
2022/10/22 10:49:00;;;;;;;8.00;4.30;;;;;;;;;;4928916;28;20459;-69
2022/10/22 10:51:54;;;;;;;6.13;3.87;;;;;;;;;;4940334;28;24221;-70
2022/10/22 10:54:45;;;;;;;4.90;3.47;;;;;;;;;;4936065;28;20466;-69
2022/10/22 10:57:40;;;;;;;5.27;3.23;;;;;;;;;;4940828;28;21260;-69
2022/10/22 11:00:29;;;;;;;6.07;3.70;;;;;;;;;;4933423;28;20834;-69
2022/10/22 11:03:29;;;;;;;6.93;4.17;;;;;;;;;;4934522;28;20465;-69
2022/10/22 11:06:19;;;;;;;7.90;3.80;;;;;;;;;;4939238;28;21002;-70
2022/10/22 11:09:23;;;;;;;6.10;4.37;;;;;;;;;;4938186;28;21069;-69
2022/10/22 11:12:15;;;;;;;5.10;3.70;;;;;;;;;;4941941;28;21102;-69
2022/10/22 11:15:09;;;;;;;4.93;3.67;;;;;;;;;;4932954;28;20944;-69
2022/10/22 11:18:00;;;;;;;6.30;3.73;;;;;;;;;;4936856;28;20499;-69
2022/10/22 11:20:57;;;;;;;7.50;3.00;;;;;;;;;;4940709;28;21066;-70
2022/10/22 11:23:47;;;;;;;8.23;4.00;;;;;;;;;;4931277;28;20782;-73
2022/10/22 11:26:39;;;;;;;7.13;3.23;;;;;;;;;;4939313;28;20447;-71
2022/10/22 11:29:29;;;;;;;4.80;3.17;;;;;;;;;;4942602;28;20960;-71
2022/10/22 11:32:25;;;;;;;4.77;3.33;;;;;;;;;;4935854;28;20457;-71
2022/10/22 11:35:16;;;;;;;5.07;3.13;;;;;;;;;;4942572;28;21023;-71
2022/10/22 11:38:05;;;;;;;6.67;2.77;;;;;;;;;;4942336;28;20571;-71
2022/10/22 11:40:57;;;;;;;8.30;3.00;;;;;;;;;;4946401;28;20470;-71
2022/10/22 11:43:59;;;;;;;5.40;2.10;;;;;;;;;;4940875;28;20464;-70
2022/10/22 11:46:55;;;;;;;6.17;3.30;;;;;;;;;;4943715;28;20523;-71
2022/10/22 11:49:45;;;;;;;4.67;2.80;;;;;;;;;;4943501;28;20754;-73
2022/10/22 11:52:42;;;;;;;4.00;2.60;;;;;;;;;;4936918;28;20463;-73
2022/10/22 11:55:33;;;;;;;3.07;2.20;;;;;;;;;;4946172;28;20455;-73
2022/10/22 11:58:32;;;;;;;4.90;2.60;;;;;;;;;;4946082;28;20474;-73
2022/10/22 12:01:30;;;;;;;3.40;2.47;;;;;;;;;;4945469;28;20858;-72
2022/10/22 12:04:40;;;;;;;5.93;2.50;;;;;;;;;;4947019;28;20458;-72
2022/10/22 12:07:33;;;;;;;4.33;2.70;;;;;;;;;;4940873;28;20479;-73
2022/10/22 12:10:22;;;;;;;4.05;2.30;;;;;;;;;;4944111;28;20459;-73
2022/10/22 12:13:14;;;;;;;4.60;2.13;;;;;;;;;;4948148;28;20204;-73
2022/10/22 12:16:04;;;;;;;2.53;2.33;;;;;;;;;;4946754;28;20904;-73
2022/10/22 12:18:57;;;;;;;4.03;2.40;;;;;;;;;;4949470;28;20218;-72
2022/10/22 12:21:48;;;;;;;5.65;3.13;;;;;;;;;;4945371;28;20207;-72
2022/10/22 12:24:39;;;;;;;4.22;2.85;;;;;;;;;;4943634;28;20207;-72
2022/10/22 12:27:29;;;;;;;4.95;3.00;;;;;;;;;;4945479;28;20244;-72
2022/10/22 12:30:18;;;;;;;3.22;2.90;;;;;;;;;;4949587;28;20223;-73
2022/10/22 12:33:08;;;;;;;6.10;3.10;;;;;;;;;;4945847;28;20221;-70
2022/10/22 12:35:57;;;;;;;3.40;2.50;;;;;;;;;;4942388;28;20226;-72
2022/10/22 12:38:48;;;;;;;5.50;2.73;;;;;;;;;;4942800;28;20919;-72
2022/10/22 12:41:39;;;;;;;5.37;2.77;;;;;;;;;;4943080;28;20458;-71
2022/10/22 12:44:28;;;;;;;3.40;3.10;;;;;;;;;;4941214;28;20448;-71
2022/10/22 12:47:18;;;;;;;8.83;3.23;;;;;;;;;;4941224;28;20482;-70
2022/10/22 12:50:06;;;;;;;3.93;3.20;;;;;;;;;;4944632;28;20451;-72
2022/10/22 12:52:55;;;;;;;4.00;2.97;;;;;;;;;;4949946;28;20681;-71
2022/10/22 12:55:46;;;;;;;5.00;3.60;;;;;;;;;;4946689;28;20443;-71
2022/10/22 12:58:38;;;;;;;4.53;3.57;;;;;;;;;;4935751;28;20478;-72
2022/10/22 13:01:28;;;;;;;9.07;4.00;;;;;;;;;;4944839;28;20979;-71
2022/10/22 13:04:21;;;;;;;4.10;3.70;;;;;;;;;;4942868;28;20460;-71
2022/10/22 13:07:20;;;;;;;5.17;3.60;;;;;;;;;;4945618;28;20491;-71
2022/10/22 13:10:17;;;;;;;6.60;3.80;;;;;;;;;;4936103;28;20464;-70
2022/10/22 13:13:06;;;;;;;5.93;3.80;;;;;;;;;;4936753;28;20496;-70
2022/10/22 13:15:56;;;;;;;4.23;3.90;;;;;;;;;;4941467;28;20459;-71
2022/10/22 13:18:47;;;;;;;5.77;4.00;;;;;;;;;;4940121;28;20819;-71
2022/10/22 13:21:38;;;;;;;5.07;3.50;;;;;;;;;;4941444;28;20448;-70
2022/10/22 13:24:29;;;;;;;5.17;3.70;;;;;;;;;;4939347;28;20500;-70
2022/10/22 13:27:18;;;;;;;8.10;4.00;;;;;;;;;;4939778;28;20894;-70
2022/10/22 13:30:22;;;;;;;5.93;3.13;;;;;;;;;;4941400;28;20464;-70
2022/10/22 13:33:23;;;;;;;4.13;3.73;;;;;;;;;;4939256;28;20455;-72
2022/10/22 13:36:14;;;;;;;9.07;3.40;;;;;;;;;;4931714;28;20473;-70
2022/10/22 13:39:05;;;;;;;6.97;3.47;;;;;;;;;;4930752;28;20513;-70
2022/10/22 13:41:54;;;;;;;4.10;3.20;;;;;;;;;;4928704;28;20475;-70
2022/10/22 13:44:42;;;;;;;5.23;2.80;;;;;;;;;;4933559;28;20866;-72
2022/10/22 13:47:31;;;;;;;5.57;3.50;;;;;;;;;;4928558;28;20496;-70
2022/10/22 13:50:21;;;;;;;5.10;3.03;;;;;;;;;;4928404;28;20525;-70
2022/10/22 13:53:16;;;;;;;8.37;3.67;;;;;;;;;;4933785;28;20452;-69
2022/10/22 13:56:08;;;;;;;4.40;3.13;;;;;;;;;;4933558;28;20539;-70
2022/10/22 13:58:57;;;;;;;6.93;3.33;;;;;;;;;;4929751;28;20490;-70
2022/10/22 14:01:45;;;;;;;6.33;3.70;;;;;;;;;;4930110;28;20456;-70
2022/10/22 14:04:34;;;;;;;6.93;3.97;;;;;;;;;;4929599;28;20505;-70
2022/10/22 14:07:24;;;;;;;5.33;3.90;;;;;;;;;;4933615;28;20483;-69
2022/10/22 14:10:17;;;;;;;5.67;4.33;;;;;;;;;;4926668;28;20460;-69
2022/10/22 14:13:07;;;;;;;4.00;3.63;;;;;;;;;;4927525;28;20452;-69
2022/10/22 14:15:55;;;;;;;4.47;3.63;;;;;;;;;;4926900;28;20457;-70
2022/10/22 14:18:44;;;;;;;6.43;4.00;;;;;;;;;;4930421;28;20496;-69
2022/10/22 14:21:35;;;;;;;8.30;3.80;;;;;;;;;;4918425;28;20464;-69
2022/10/22 14:24:25;;;;;;;4.40;3.47;;;;;;;;;;4928932;28;20463;-69
2022/10/22 14:27:16;;;;;;;5.47;3.40;;;;;;;;;;4928235;28;20493;-69
2022/10/22 14:30:05;;;;;;;3.80;2.70;;;;;;;;;;4921957;28;22182;-69
2022/10/22 14:32:54;;;;;;;7.87;3.67;;;;;;;;;;4927857;28;20470;-69
2022/10/22 14:35:43;;;;;;;4.70;2.97;;;;;;;;;;4925586;28;20468;-69
2022/10/22 14:38:31;;;;;;;7.10;3.20;;;;;;;;;;4930867;28;20574;-70
2022/10/22 14:41:24;;;;;;;8.60;3.83;;;;;;;;;;4935645;28;20471;-69
2022/10/22 14:44:13;;;;;;;4.77;3.43;;;;;;;;;;4909657;28;20464;-71
2022/10/22 14:47:02;;;;;;;8.70;3.30;;;;;;;;;;4923351;28;20491;-69
2022/10/22 14:49:50;;;;;;;7.97;3.73;;;;;;;;;;4922870;28;20459;-69
2022/10/22 14:52:39;;;;;;;5.77;3.47;;;;;;;;;;4924625;28;20544;-68
2022/10/22 14:55:30;;;;;;;8.40;3.23;;;;;;;;;;4910527;28;20457;-69
2022/10/22 14:58:20;;;;;;;7.17;3.20;;;;;;;;;;4921495;28;20959;-68
2022/10/22 15:01:09;;;;;;;4.77;2.93;;;;;;;;;;4928819;28;20976;-68
2022/10/22 15:03:58;;;;;;;4.90;3.50;;;;;;;;;;4925197;28;20471;-69
2022/10/22 15:06:46;;;;;;;5.73;3.20;;;;;;;;;;4922473;28;20492;-68
2022/10/22 15:09:35;;;;;;;6.73;3.40;;;;;;;;;;4916451;28;20468;-69
2022/10/22 15:12:23;;;;;;;6.60;3.33;;;;;;;;;;4921141;28;20469;-69
2022/10/22 15:15:13;;;;;;;7.90;3.53;;;;;;;;;;4929260;28;20466;-69
2022/10/22 15:18:05;;;;;;;8.47;3.30;;;;;;;;;;4918144;28;20490;-68
2022/10/22 15:20:57;;;;;;;5.50;3.43;;;;;;;;;;4912295;28;20476;-69
2022/10/22 15:23:46;;;;;;;5.47;3.47;;;;;;;;;;4927468;28;20456;-68
2022/10/22 15:26:34;;;;;;;5.90;3.07;;;;;;;;;;4926718;28;20487;-70
2022/10/22 15:29:23;;;;;;;6.67;3.73;;;;;;;;;;4916689;28;20476;-68
2022/10/22 15:32:13;;;;;;;8.13;3.30;;;;;;;;;;4918748;28;20471;-69
2022/10/22 15:35:02;;;;;;;3.83;2.93;;;;;;;;;;4915303;28;21463;-69
2022/10/22 15:37:51;;;;;;;6.60;3.10;;;;;;;;;;4926667;28;20507;-68
2022/10/22 15:40:40;;;;;;;7.80;4.07;;;;;;;;;;4918221;28;20541;-69
2022/10/22 15:43:28;;;;;;;7.43;3.67;;;;;;;;;;4917699;28;20541;-69
2022/10/22 15:46:18;;;;;;;4.80;3.60;;;;;;;;;;4930761;28;20836;-69
2022/10/22 15:49:07;;;;;;;6.90;3.40;;;;;;;;;;4925469;28;20463;-72
2022/10/22 15:51:56;;;;;;;8.87;3.40;;;;;;;;;;4930542;28;20464;-70
2022/10/22 15:54:45;;;;;;;7.60;4.10;;;;;;;;;;4928203;28;20471;-71
2022/10/22 15:57:35;;;;;;;5.97;4.20;;;;;;;;;;4930455;28;21000;-71
2022/10/22 16:00:24;;;;;;;5.20;4.00;;;;;;;;;;4928035;28;20476;-68
2022/10/22 16:03:12;;;;;;;4.90;3.60;;;;;;;;;;4933507;28;20554;-68
2022/10/22 16:06:04;;;;;;;4.30;3.70;;;;;;;;;;4936957;28;20463;-71
2022/10/22 16:08:54;;;;;;;4.43;3.80;;;;;;;;;;4928451;28;21381;-71
2022/10/22 16:11:42;;;;;;;4.70;4.30;;;;;;;;;;4934180;28;20475;-71
2022/10/22 16:14:31;;;;;;;5.47;4.27;;;;;;;;;;4933607;28;20964;-71
2022/10/22 16:17:19;;;;;;;4.43;4.03;;;;;;;;;;4936845;28;20491;-71
2022/10/22 16:20:10;;;;;;;4.50;4.10;;;;;;;;;;4931797;28;20463;-68
2022/10/22 16:23:05;;;;;;;5.50;4.83;;;;;;;;;;4939145;28;20491;-68
2022/10/22 16:25:53;;;;;;;11.97;10.83;;;;;;;;;;4936061;28;21260;-68
2022/10/22 16:28:42;;;;;;;8.07;5.00;;;;;;;;;;4933967;28;20487;-68
2022/10/22 16:31:31;;;;;;;6.07;5.57;;;;;;;;;;4935427;28;20594;-68
2022/10/22 16:34:22;;;;;;;10.30;9.27;;;;;;;;;;4939116;28;20455;-68
2022/10/22 16:37:12;;;;;;;5.93;5.43;;;;;;;;;;4939181;28;20534;-68
2022/10/22 16:40:02;;;;;;;6.73;5.03;;;;;;;;;;4928413;28;20845;-67
2022/10/22 16:42:55;;;;;;;8.40;5.33;;;;;;;;;;4925793;28;20475;-68
2022/10/22 16:45:47;;;;;;;7.20;5.03;;;;;;;;;;4935712;28;20853;-69
2022/10/22 16:48:39;;;;;;;7.13;4.60;;;;;;;;;;4929289;28;20479;-68
2022/10/22 16:51:28;;;;;;;4.93;4.63;;;;;;;;;;4937071;28;20496;-69
2022/10/22 16:54:20;;;;;;;8.77;6.70;;;;;;;;;;4935586;28;21010;-68